createdAt,value
2022-09-18T00:00:39.558Z,93566.88
2022-09-18T00:01:37.690Z,93575.88
2022-09-18T00:02:34.496Z,93539.94
2022-09-18T00:03:31.213Z,93568.00
2022-09-18T00:04:27.969Z,93601.09
2022-09-18T00:05:24.684Z,93532.13
2022-09-18T00:06:24.351Z,93594.53
2022-09-18T00:07:21.112Z,93561.19
2022-09-18T00:08:17.818Z,93565.03
2022-09-18T00:09:15.835Z,93451.09
2022-09-18T00:10:12.512Z,93591.66
2022-09-18T00:11:11.693Z,93495.59
2022-09-18T00:12:08.463Z,93586.94
2022-09-18T00:13:05.171Z,93576.75
2022-09-18T00:14:02.011Z,93417.06
2022-09-18T00:14:58.717Z,93559.38
2022-09-18T00:15:56.984Z,93612.13
2022-09-18T00:16:53.731Z,93538.72
2022-09-18T00:17:50.409Z,93605.97
2022-09-18T00:18:48.099Z,93628.47
2022-09-18T00:19:44.870Z,93622.19
2022-09-18T00:20:41.573Z,93619.13
2022-09-18T00:21:42.928Z,93446.47
2022-09-18T00:22:40.768Z,93483.47
2022-09-18T00:23:38.568Z,93598.97
2022-09-18T00:24:35.565Z,93321.31
2022-09-18T00:25:32.579Z,93587.38
2022-09-18T00:26:29.662Z,93521.16
2022-09-18T00:27:26.408Z,93593.25
2022-09-18T00:28:23.092Z,93634.63
2022-09-18T00:29:19.804Z,93621.41
2022-09-18T00:30:17.257Z,93630.44
2022-09-18T00:31:16.953Z,93621.50
2022-09-18T00:32:13.724Z,93623.38
2022-09-18T00:33:10.403Z,93637.09
2022-09-18T00:34:11.241Z,93588.78
2022-09-18T00:35:08.298Z,93627.38
2022-09-18T00:36:09.151Z,93570.38
2022-09-18T00:37:05.819Z,93656.53
2022-09-18T00:38:02.502Z,93594.41
2022-09-18T00:38:59.505Z,93614.22
2022-09-18T00:39:56.309Z,93452.56
2022-09-18T00:40:53.054Z,93571.47
2022-09-18T00:41:49.791Z,93623.03
2022-09-18T00:42:46.490Z,93639.13
2022-09-18T00:43:43.424Z,93632.25
2022-09-18T00:44:41.551Z,93639.94
2022-09-18T00:45:38.419Z,93671.16
2022-09-18T00:46:37.569Z,93640.69
2022-09-18T00:47:50.638Z,93671.41
2022-09-18T00:48:57.621Z,93636.75
2022-09-18T00:50:03.379Z,93665.88
2022-09-18T00:51:01.099Z,93491.13
2022-09-18T00:52:01.708Z,93678.28
2022-09-18T00:53:03.393Z,93637.78
2022-09-18T00:54:18.415Z,93689.91
2022-09-18T00:55:18.555Z,93684.88
2022-09-18T00:56:16.842Z,93695.47
2022-09-18T00:57:35.505Z,93693.38
2022-09-18T00:58:32.270Z,93675.91
2022-09-18T00:59:32.554Z,93690.97
2022-09-18T01:00:31.515Z,93677.72
2022-09-18T01:01:28.351Z,93729.28
2022-09-18T01:02:25.168Z,93604.03
2022-09-18T01:03:21.970Z,93739.97
2022-09-18T01:04:18.664Z,93744.22
2022-09-18T01:05:24.626Z,93736.81
2022-09-18T01:06:30.164Z,93722.97
2022-09-18T01:07:57.173Z,93720.28
2022-09-18T01:08:56.755Z,93726.13
2022-09-18T01:10:11.679Z,93739.03
2022-09-18T01:11:14.091Z,93736.84
2022-09-18T01:12:33.116Z,93705.25
2022-09-18T01:14:07.160Z,93743.91
2022-09-18T01:15:09.382Z,93761.06
2022-09-18T01:16:13.441Z,93750.69
2022-09-18T01:17:28.467Z,93761.28
2022-09-18T01:18:46.522Z,93745.59
2022-09-18T01:20:01.506Z,93760.69
2022-09-18T01:21:19.606Z,93763.59
2022-09-18T01:22:58.818Z,93667.19
2022-09-18T01:24:29.936Z,93797.78
2022-09-18T01:25:26.612Z,93770.28
2022-09-18T01:27:02.925Z,93779.66
2022-09-18T01:28:22.493Z,93788.41
2022-09-18T01:29:28.750Z,93809.94
2022-09-18T01:30:25.566Z,93802.16
2022-09-18T01:31:33.403Z,93650.75
2022-09-18T01:32:48.895Z,93795.72
2022-09-18T01:33:58.762Z,93725.28
2022-09-18T01:35:36.891Z,93751.84
2022-09-18T01:36:34.322Z,93710.59
2022-09-18T01:37:50.482Z,93793.09
2022-09-18T01:39:02.877Z,93807.13
2022-09-18T01:40:29.148Z,93794.41
2022-09-18T01:41:29.219Z,93803.81
2022-09-18T01:42:30.146Z,93836.84
2022-09-18T01:43:31.496Z,93783.56
2022-09-18T01:44:33.045Z,93829.13
2022-09-18T01:45:35.657Z,93664.09
2022-09-18T01:46:37.571Z,93837.34
2022-09-18T01:47:43.814Z,93837.41
2022-09-18T01:49:07.264Z,93797.41
2022-09-18T01:50:07.199Z,93874.94
2022-09-18T01:51:28.569Z,93798.38
2022-09-18T01:52:45.046Z,93833.69
2022-09-18T01:53:51.815Z,93859.38
2022-09-18T01:54:52.741Z,93808.72
2022-09-18T01:56:02.760Z,93732.50
2022-09-18T01:57:13.035Z,93876.22
2022-09-18T01:58:17.432Z,93859.53
2022-09-18T01:59:33.493Z,93914.56
2022-09-18T02:00:31.777Z,93902.72
2022-09-18T02:01:33.829Z,93876.69
2022-09-18T02:02:39.201Z,93886.78
2022-09-18T02:03:45.356Z,93919.91
2022-09-18T02:04:47.400Z,93889.69
2022-09-18T02:05:51.663Z,93917.28
2022-09-18T02:07:14.320Z,93783.69
2022-09-18T02:08:23.378Z,93879.84
2022-09-18T02:09:20.703Z,93895.44
2022-09-18T02:10:23.313Z,93741.88
2022-09-18T02:11:22.512Z,93881.66
2022-09-18T02:12:23.253Z,93939.78
2022-09-18T02:13:28.211Z,93895.75
2022-09-18T02:14:42.897Z,93885.66
2022-09-18T02:15:43.745Z,93929.00
2022-09-18T02:16:46.160Z,93949.72
2022-09-18T02:17:42.862Z,93939.31
2022-09-18T02:18:45.439Z,93965.50
2022-09-18T02:19:51.010Z,93957.31
2022-09-18T02:20:48.558Z,93966.16
2022-09-18T02:21:49.798Z,93965.16
2022-09-18T02:22:51.097Z,93968.94
2022-09-18T02:23:48.753Z,93974.09
2022-09-18T02:24:49.728Z,93836.03
2022-09-18T02:25:54.623Z,93972.78
2022-09-18T02:26:54.577Z,93919.28
2022-09-18T02:27:54.799Z,93977.72
2022-09-18T02:28:51.911Z,93951.63
2022-09-18T02:29:49.547Z,93945.38
2022-09-18T02:30:46.707Z,93915.38
2022-09-18T02:31:43.865Z,93959.50
2022-09-18T02:32:41.818Z,93996.16
2022-09-18T02:33:38.791Z,93902.63
2022-09-18T02:34:35.880Z,93967.94
2022-09-18T02:35:44.651Z,93957.63
2022-09-18T02:37:00.030Z,94001.53
2022-09-18T02:38:15.068Z,94008.09
2022-09-18T02:39:48.927Z,94014.94
2022-09-18T02:41:07.537Z,94029.47
2022-09-18T02:42:04.136Z,94042.03
2022-09-18T02:43:32.301Z,93917.06
2022-09-18T02:44:41.125Z,94048.16
2022-09-18T02:46:21.483Z,94050.41
2022-09-18T02:47:18.130Z,94045.22
2022-09-18T02:48:33.125Z,94067.31
2022-09-18T02:49:30.405Z,94046.06
2022-09-18T02:50:48.873Z,94053.28
2022-09-18T02:51:45.516Z,94045.94
2022-09-18T02:52:55.095Z,94047.66
2022-09-18T02:54:00.724Z,94051.25
2022-09-18T02:55:10.206Z,94060.78
2022-09-18T02:56:18.008Z,94078.41
2022-09-18T02:57:35.518Z,94064.81
2022-09-18T02:58:53.667Z,93987.03
2022-09-18T02:59:58.428Z,94079.09
2022-09-18T03:01:01.093Z,94069.06
2022-09-18T03:01:59.922Z,94094.78
2022-09-18T03:02:58.873Z,94064.44
2022-09-18T03:04:03.859Z,93983.66
2022-09-18T03:05:00.551Z,94052.06
2022-09-18T03:05:57.552Z,94072.22
2022-09-18T03:06:54.908Z,94027.53
2022-09-18T03:07:51.999Z,94093.88
2022-09-18T03:08:50.071Z,94078.44
2022-09-18T03:09:46.753Z,94086.63
2022-09-18T03:10:43.471Z,94090.59
2022-09-18T03:11:40.190Z,94092.19
2022-09-18T03:12:36.959Z,94091.09
2022-09-18T03:13:34.124Z,94095.19
2022-09-18T03:14:30.862Z,94082.78
2022-09-18T03:15:27.661Z,94016.72
2022-09-18T03:16:24.499Z,93954.44
2022-09-18T03:17:21.233Z,94113.38
2022-09-18T03:18:17.983Z,94034.84
2022-09-18T03:19:14.860Z,94126.59
2022-09-18T03:20:11.592Z,94125.41
2022-09-18T03:21:08.285Z,94096.97
2022-09-18T03:22:05.321Z,94127.28
2022-09-18T03:23:02.073Z,94112.75
2022-09-18T03:23:58.855Z,94128.59
2022-09-18T03:24:55.548Z,94090.09
2022-09-18T03:25:52.794Z,94107.94
2022-09-18T03:26:52.366Z,94119.44
2022-09-18T03:27:49.142Z,93981.44
2022-09-18T03:28:46.259Z,94118.06
2022-09-18T03:30:56.896Z,94135.56
2022-09-18T03:31:53.665Z,94137.59
2022-09-18T03:32:50.777Z,93965.19
2022-09-18T03:33:47.460Z,94137.97
2022-09-18T03:34:44.215Z,94016.13
2022-09-18T03:35:43.175Z,94117.53
2022-09-18T03:36:39.870Z,94160.81
2022-09-18T03:37:36.564Z,94087.00
2022-09-18T03:38:33.991Z,94110.66
2022-09-18T03:39:30.714Z,94124.16
2022-09-18T03:40:27.582Z,94147.47
2022-09-18T03:41:24.347Z,94153.94
2022-09-18T03:42:21.209Z,94142.59
2022-09-18T03:43:17.904Z,94155.53
2022-09-18T03:44:14.606Z,93951.97
2022-09-18T03:45:12.319Z,94155.09
2022-09-18T03:46:09.023Z,94147.19
2022-09-18T03:47:05.853Z,94151.88
2022-09-18T03:48:03.169Z,94156.78
2022-09-18T03:48:59.957Z,94147.94
2022-09-18T03:49:56.649Z,94104.94
2022-09-18T03:50:53.386Z,94145.88
2022-09-18T03:51:50.057Z,94151.50
2022-09-18T03:52:51.255Z,94172.00
2022-09-18T03:53:51.088Z,94046.34
2022-09-18T03:54:48.342Z,94185.72
2022-09-18T03:55:46.838Z,94147.75
2022-09-18T03:56:43.622Z,94176.66
2022-09-18T03:57:40.309Z,94163.00
2022-09-18T03:58:37.010Z,94176.72
2022-09-18T03:59:33.772Z,94178.53
2022-09-18T04:00:30.475Z,94175.19
2022-09-18T04:01:27.195Z,94079.81
2022-09-18T04:02:23.923Z,93986.94
2022-09-18T04:03:20.658Z,94177.50
2022-09-18T04:04:17.407Z,94081.78
2022-09-18T04:05:15.398Z,94161.69
2022-09-18T04:06:12.194Z,94179.63
2022-09-18T04:07:08.981Z,94159.97
2022-09-18T04:08:05.659Z,94179.16
2022-09-18T04:09:02.512Z,94057.22
2022-09-18T04:09:59.435Z,94182.53
2022-09-18T04:10:56.149Z,94171.91
2022-09-18T04:11:52.882Z,94190.16
2022-09-18T04:12:49.630Z,94150.00
2022-09-18T04:13:46.319Z,94163.44
2022-09-18T04:14:43.107Z,94163.25
2022-09-18T04:15:39.885Z,94193.56
2022-09-18T04:16:36.737Z,94194.63
2022-09-18T04:17:33.422Z,94204.84
2022-09-18T04:18:31.063Z,94201.63
2022-09-18T04:19:27.937Z,94173.97
2022-09-18T04:20:24.833Z,94223.44
2022-09-18T04:21:21.509Z,94137.66
2022-09-18T04:22:18.686Z,94232.25
2022-09-18T04:23:15.482Z,94200.59
2022-09-18T04:24:12.190Z,94227.81
2022-09-18T04:25:09.449Z,94210.81
2022-09-18T04:26:09.589Z,94222.19
2022-09-18T04:27:07.021Z,94227.88
2022-09-18T04:28:03.925Z,94183.13
2022-09-18T04:29:00.891Z,94208.38
2022-09-18T04:29:57.633Z,94142.69
2022-09-18T04:30:54.382Z,94216.34
2022-09-18T04:31:51.150Z,94076.06
2022-09-18T04:32:47.919Z,94038.28
2022-09-18T04:33:44.618Z,94187.09
2022-09-18T04:34:41.338Z,94218.41
2022-09-18T04:35:38.068Z,94187.13
2022-09-18T04:36:34.774Z,94202.00
2022-09-18T04:37:31.533Z,94228.84
2022-09-18T04:38:28.226Z,94222.44
2022-09-18T04:39:24.909Z,94223.16
2022-09-18T04:40:22.183Z,94211.66
2022-09-18T04:41:18.891Z,94161.03
2022-09-18T04:42:15.636Z,94201.56
2022-09-18T04:43:12.370Z,94223.41
2022-09-18T04:44:09.052Z,94236.72
2022-09-18T04:45:06.633Z,94218.97
2022-09-18T04:46:03.511Z,94250.97
2022-09-18T04:47:00.262Z,94249.19
2022-09-18T04:47:57.029Z,94255.69
2022-09-18T04:48:54.181Z,94188.97
2022-09-18T04:49:50.948Z,94242.00
2022-09-18T04:50:49.811Z,94079.41
2022-09-18T04:51:46.500Z,94299.91
2022-09-18T04:52:44.340Z,94213.09
2022-09-18T04:53:41.451Z,94231.25
2022-09-18T04:54:38.214Z,94249.63
2022-09-18T04:55:35.062Z,94237.84
2022-09-18T04:56:31.779Z,94269.16
2022-09-18T04:57:28.739Z,94270.91
2022-09-18T04:58:25.429Z,94263.50
2022-09-18T04:59:22.657Z,94276.91
2022-09-18T05:00:19.386Z,94227.41
2022-09-18T05:01:16.160Z,94187.84
2022-09-18T05:02:12.965Z,94284.28
2022-09-18T05:03:10.391Z,94155.94
2022-09-18T05:04:07.305Z,94261.22
2022-09-18T05:05:04.165Z,94266.41
2022-09-18T05:06:00.951Z,94104.09
2022-09-18T05:06:57.702Z,94265.53
2022-09-18T05:07:54.573Z,94296.91
2022-09-18T05:08:51.269Z,94305.13
2022-09-18T05:09:47.975Z,94303.28
2022-09-18T05:10:44.722Z,94303.75
2022-09-18T05:11:41.529Z,94332.78
2022-09-18T05:12:41.303Z,94311.66
2022-09-18T05:13:40.121Z,94240.00
2022-09-18T05:14:36.880Z,94193.44
2022-09-18T05:15:33.614Z,94303.78
2022-09-18T05:16:30.341Z,94330.56
2022-09-18T05:17:27.025Z,94323.25
2022-09-18T05:18:24.450Z,94303.44
2022-09-18T05:19:21.241Z,94328.41
2022-09-18T05:20:18.000Z,94323.00
2022-09-18T05:21:14.740Z,94321.44
2022-09-18T05:22:11.520Z,94324.13
2022-09-18T05:23:08.323Z,94345.50
2022-09-18T05:24:05.121Z,94317.97
2022-09-18T05:25:01.845Z,94330.13
2022-09-18T05:25:58.623Z,94324.50
2022-09-18T05:26:55.308Z,94329.78
2022-09-18T05:28:00.395Z,94259.22
2022-09-18T05:28:57.289Z,94323.47
2022-09-18T05:29:54.053Z,94344.06
2022-09-18T05:30:50.759Z,94361.84
2022-09-18T05:31:47.929Z,94344.44
2022-09-18T05:32:44.648Z,94327.50
2022-09-18T05:33:41.823Z,94278.78
2022-09-18T05:34:38.512Z,94329.75
2022-09-18T05:35:36.394Z,94321.53
2022-09-18T05:36:33.267Z,94154.94
2022-09-18T05:37:29.990Z,94326.69
2022-09-18T05:38:27.650Z,94326.38
2022-09-18T05:39:24.641Z,94165.19
2022-09-18T05:40:24.572Z,94266.47
2022-09-18T05:41:21.595Z,94332.34
2022-09-18T05:42:18.369Z,94319.38
2022-09-18T05:43:15.938Z,94327.50
2022-09-18T05:44:12.618Z,94339.13
2022-09-18T05:45:09.714Z,94250.22
2022-09-18T05:46:09.294Z,94189.63
2022-09-18T05:47:09.017Z,94337.91
2022-09-18T05:48:07.038Z,94347.19
2022-09-18T05:49:03.945Z,94306.44
2022-09-18T05:50:00.635Z,94340.88
2022-09-18T05:50:57.355Z,94322.66
2022-09-18T05:51:57.130Z,94344.56
2022-09-18T05:53:13.108Z,94335.84
2022-09-18T05:54:09.821Z,94355.22
2022-09-18T05:55:07.071Z,94353.97
2022-09-18T05:56:03.918Z,94361.59
2022-09-18T05:57:00.695Z,94263.03
2022-09-18T05:57:58.586Z,94364.66
2022-09-18T05:58:55.343Z,94356.66
2022-09-18T05:59:52.066Z,94332.75
2022-09-18T06:00:51.199Z,94348.06
2022-09-18T06:01:48.019Z,94308.16
2022-09-18T06:02:45.582Z,94341.00
2022-09-18T06:03:42.529Z,94296.22
2022-09-18T06:04:40.119Z,94362.81
2022-09-18T06:05:40.207Z,94332.47
2022-09-18T06:06:37.131Z,94324.72
2022-09-18T06:07:33.855Z,94365.63
2022-09-18T06:08:30.734Z,94362.53
2022-09-18T06:09:27.832Z,94328.19
2022-09-18T06:10:24.777Z,94353.44
2022-09-18T06:11:21.546Z,94283.16
2022-09-18T06:12:18.255Z,94193.00
2022-09-18T06:13:17.498Z,94299.53
2022-09-18T06:14:14.406Z,94366.94
2022-09-18T06:15:13.058Z,94323.03
2022-09-18T06:16:09.853Z,94371.25
2022-09-18T06:17:06.673Z,94394.50
2022-09-18T06:18:05.422Z,94365.44
2022-09-18T06:19:02.197Z,94382.88
2022-09-18T06:20:00.024Z,94321.06
2022-09-18T06:20:58.575Z,94368.56
2022-09-18T06:21:55.296Z,94374.28
2022-09-18T06:22:52.159Z,94367.91
2022-09-18T06:23:48.862Z,94378.69
2022-09-18T06:24:45.552Z,94380.59
2022-09-18T06:25:42.253Z,94393.75
2022-09-18T06:26:38.938Z,94387.25
2022-09-18T06:27:35.634Z,94274.69
2022-09-18T06:28:34.193Z,94404.13
2022-09-18T06:29:31.109Z,94364.78
2022-09-18T06:30:30.979Z,94411.38
2022-09-18T06:31:27.753Z,94416.56
2022-09-18T06:32:24.413Z,94239.47
2022-09-18T06:33:21.105Z,94389.72
2022-09-18T06:34:17.777Z,94422.28
2022-09-18T06:35:14.509Z,94393.44
2022-09-18T06:36:14.011Z,94382.19
2022-09-18T06:37:11.525Z,94410.81
2022-09-18T06:38:10.217Z,94384.06
2022-09-18T06:39:07.053Z,94383.97
2022-09-18T06:40:05.144Z,94427.03
2022-09-18T06:41:01.992Z,94417.16
2022-09-18T06:42:00.246Z,94341.09
2022-09-18T06:42:58.867Z,94368.28
2022-09-18T06:43:55.793Z,94287.53
2022-09-18T06:44:52.461Z,94422.19
2022-09-18T06:45:57.349Z,94431.78
2022-09-18T06:46:54.126Z,94444.09
2022-09-18T06:47:55.053Z,94385.66
2022-09-18T06:48:51.783Z,94444.16
2022-09-18T06:49:48.555Z,94437.56
2022-09-18T06:50:51.490Z,94378.47
2022-09-18T06:51:48.670Z,94391.03
2022-09-18T06:52:45.414Z,94447.00
2022-09-18T06:53:42.285Z,94390.56
2022-09-18T06:54:38.953Z,94401.63
2022-09-18T06:55:35.715Z,94241.50
2022-09-18T06:56:32.524Z,94430.56
2022-09-18T06:57:29.248Z,94437.28
2022-09-18T06:58:25.974Z,94308.91
2022-09-18T06:59:22.842Z,94424.19
2022-09-18T07:00:19.687Z,94410.81
2022-09-18T07:01:16.660Z,94430.41
2022-09-18T07:02:19.167Z,94271.72
2022-09-18T07:03:16.494Z,94421.31
2022-09-18T07:04:13.183Z,94264.69
2022-09-18T07:05:09.866Z,94426.72
2022-09-18T07:06:09.587Z,94420.63
2022-09-18T07:07:07.754Z,94437.38
2022-09-18T07:08:04.538Z,94430.28
2022-09-18T07:09:01.459Z,94392.28
2022-09-18T07:09:58.335Z,94327.72
2022-09-18T07:11:00.381Z,94440.13
2022-09-18T07:11:57.399Z,94442.66
2022-09-18T07:13:02.180Z,94381.59
2022-09-18T07:13:58.890Z,94435.22
2022-09-18T07:14:55.926Z,94460.19
2022-09-18T07:15:52.640Z,94420.06
2022-09-18T07:16:49.434Z,94453.38
2022-09-18T07:17:46.378Z,94450.94
2022-09-18T07:18:43.516Z,94451.47
2022-09-18T07:19:40.187Z,94414.13
2022-09-18T07:20:36.869Z,94451.13
2022-09-18T07:21:33.585Z,94456.75
2022-09-18T07:22:30.880Z,94433.78
2022-09-18T07:23:29.766Z,94409.09
2022-09-18T07:24:26.504Z,94456.63
2022-09-18T07:25:24.797Z,94425.84
2022-09-18T07:26:21.507Z,94249.44
2022-09-18T07:27:18.214Z,94467.28
2022-09-18T07:28:14.919Z,94441.22
2022-09-18T07:29:11.689Z,94476.63
2022-09-18T07:30:08.995Z,94465.84
2022-09-18T07:31:06.421Z,94437.56
2022-09-18T07:32:03.281Z,94491.84
2022-09-18T07:33:02.486Z,94406.28
2022-09-18T07:33:59.165Z,94436.91
2022-09-18T07:34:55.886Z,94465.66
2022-09-18T07:35:52.761Z,94325.72
2022-09-18T07:36:50.383Z,94425.00
2022-09-18T07:37:47.059Z,94481.03
2022-09-18T07:38:43.861Z,94503.63
2022-09-18T07:39:40.588Z,94489.38
2022-09-18T07:40:37.925Z,94445.09
2022-09-18T07:41:34.677Z,94401.31
2022-09-18T07:42:31.594Z,94462.88
2022-09-18T07:43:28.280Z,94480.81
2022-09-18T07:44:26.209Z,94358.50
2022-09-18T07:45:22.923Z,94323.25
2022-09-18T07:46:19.724Z,94499.28
2022-09-18T07:47:16.519Z,94406.88
2022-09-18T07:48:13.826Z,94417.78
2022-09-18T07:49:10.537Z,94494.28
2022-09-18T07:50:09.154Z,94497.19
2022-09-18T07:51:05.968Z,94492.03
2022-09-18T07:52:02.663Z,94464.97
2022-09-18T07:53:02.570Z,94467.53
2022-09-18T07:53:59.284Z,94422.97
2022-09-18T07:54:57.007Z,94356.56
2022-09-18T07:55:55.820Z,94487.41
2022-09-18T07:56:52.691Z,94491.84
2022-09-18T07:57:55.720Z,94501.09
2022-09-18T07:58:52.448Z,94475.16
2022-09-18T07:59:49.154Z,94386.88
2022-09-18T08:00:45.879Z,94493.34
2022-09-18T08:01:42.680Z,94500.59
2022-09-18T08:02:39.669Z,94465.13
2022-09-18T08:03:41.218Z,94495.97
2022-09-18T08:04:38.976Z,94463.47
2022-09-18T08:05:36.270Z,94499.19
2022-09-18T08:06:33.082Z,94488.16
2022-09-18T08:07:29.773Z,94474.25
2022-09-18T08:08:26.539Z,94460.56
2022-09-18T08:09:23.669Z,94419.34
2022-09-18T08:10:20.478Z,94466.25
2022-09-18T08:11:17.159Z,94344.09
2022-09-18T08:12:15.377Z,94508.50
2022-09-18T08:13:12.593Z,94518.63
2022-09-18T08:14:09.314Z,94495.56
2022-09-18T08:15:06.463Z,94505.50
2022-09-18T08:16:04.143Z,94445.34
2022-09-18T08:17:00.859Z,94484.47
2022-09-18T08:17:57.716Z,94436.16
2022-09-18T08:18:57.458Z,94445.84
2022-09-18T08:19:54.143Z,94508.22
2022-09-18T08:20:50.839Z,94514.94
2022-09-18T08:21:47.494Z,94452.50
2022-09-18T08:22:44.230Z,94515.56
2022-09-18T08:23:40.885Z,94513.66
2022-09-18T08:24:37.692Z,94338.41
2022-09-18T08:25:34.462Z,94455.66
2022-09-18T08:26:31.326Z,94430.00
2022-09-18T08:27:28.828Z,94336.59
2022-09-18T08:28:25.511Z,94501.22
2022-09-18T08:29:22.250Z,94420.19
2022-09-18T08:30:19.468Z,94501.16
2022-09-18T08:31:16.307Z,94365.22
2022-09-18T08:32:13.224Z,94508.47
2022-09-18T08:33:11.592Z,94467.13
2022-09-18T08:34:09.414Z,94460.97
2022-09-18T08:35:06.782Z,94375.22
2022-09-18T08:36:03.614Z,94325.06
2022-09-18T08:37:00.299Z,94408.06
2022-09-18T08:37:58.093Z,94512.38
2022-09-18T08:38:55.893Z,94520.81
2022-09-18T08:39:52.632Z,94536.50
2022-09-18T08:41:14.271Z,94501.00
2022-09-18T08:42:52.070Z,94509.25
2022-09-18T08:44:05.716Z,94501.81
2022-09-18T08:45:17.281Z,94506.47
2022-09-18T08:46:26.742Z,94495.66
2022-09-18T08:47:27.329Z,94493.97
2022-09-18T08:49:06.842Z,94465.47
2022-09-18T08:50:15.500Z,94472.88
2022-09-18T08:51:30.742Z,94463.53
2022-09-18T08:52:38.339Z,94359.16
2022-09-18T08:53:42.318Z,94361.84
2022-09-18T08:55:02.529Z,94459.69
2022-09-18T08:56:04.513Z,94540.72
2022-09-18T08:57:15.242Z,94380.09
2022-09-18T08:58:23.061Z,94480.00
2022-09-18T08:59:49.630Z,94515.63
2022-09-18T09:00:52.561Z,94280.03
2022-09-18T09:02:17.050Z,94532.19
2022-09-18T09:03:29.114Z,94531.91
2022-09-18T09:04:29.963Z,94553.03
2022-09-18T09:05:37.838Z,94534.78
2022-09-18T09:06:58.961Z,94534.53
2022-09-18T09:08:17.023Z,94541.19
2022-09-18T09:09:50.586Z,94526.56
2022-09-18T09:11:14.816Z,94534.84
2022-09-18T09:12:23.596Z,94524.25
2022-09-18T09:13:26.317Z,94524.41
2022-09-18T09:14:56.090Z,94536.28
2022-09-18T09:15:59.583Z,94534.28
2022-09-18T09:17:09.898Z,94553.84
2022-09-18T09:18:28.744Z,94470.00
2022-09-18T09:19:31.294Z,94532.63
2022-09-18T09:20:30.742Z,94544.84
2022-09-18T09:22:00.782Z,94454.91
2022-09-18T09:23:19.477Z,94385.78
2022-09-18T09:24:32.984Z,94567.91
2022-09-18T09:26:02.726Z,94499.56
2022-09-18T09:27:13.711Z,94529.75
2022-09-18T09:28:26.492Z,94437.06
2022-09-18T09:29:39.978Z,94373.06
2022-09-18T09:30:40.841Z,94557.38
2022-09-18T09:31:50.820Z,94399.47
2022-09-18T09:33:02.899Z,94504.94
2022-09-18T09:34:26.014Z,94446.06
2022-09-18T09:35:22.867Z,94551.97
2022-09-18T09:36:27.575Z,94464.13
2022-09-18T09:37:36.024Z,94579.53
2022-09-18T09:38:41.343Z,94531.91
2022-09-18T09:39:56.597Z,94533.34
2022-09-18T09:40:55.927Z,94572.41
2022-09-18T09:42:25.910Z,94500.75
2022-09-18T09:43:35.517Z,94563.59
2022-09-18T09:44:41.091Z,94584.41
2022-09-18T09:45:54.417Z,94547.13
2022-09-18T09:47:00.418Z,94567.91
2022-09-18T09:48:06.435Z,94584.59
2022-09-18T09:49:34.984Z,94576.25
2022-09-18T09:50:41.582Z,94383.09
2022-09-18T09:51:53.174Z,94586.69
2022-09-18T09:52:57.949Z,94594.88
2022-09-18T09:53:56.044Z,94591.19
2022-09-18T09:55:00.512Z,94392.41
2022-09-18T09:56:38.770Z,94572.75
2022-09-18T09:57:49.544Z,94579.16
2022-09-18T09:58:55.535Z,94589.16
2022-09-18T10:00:17.799Z,94574.06
2022-09-18T10:01:27.026Z,94567.63
2022-09-18T10:02:41.484Z,94444.88
2022-09-18T10:03:55.262Z,94508.44
2022-09-18T10:05:31.230Z,94402.09
2022-09-18T10:06:40.194Z,94590.06
2022-09-18T10:07:50.102Z,94575.66
2022-09-18T10:08:59.780Z,94596.94
2022-09-18T10:10:06.602Z,94548.47
2022-09-18T10:11:08.837Z,94591.56
2022-09-18T10:12:22.446Z,94589.25
2022-09-18T10:13:29.222Z,94547.59
2022-09-18T10:14:31.655Z,94455.47
2022-09-18T10:15:45.629Z,94589.28
2022-09-18T10:16:54.176Z,94608.34
2022-09-18T10:17:58.058Z,94420.75
2022-09-18T10:18:54.740Z,94550.66
2022-09-18T10:19:52.325Z,94601.53
2022-09-18T10:20:55.834Z,94566.03
2022-09-18T10:21:56.064Z,94594.16
2022-09-18T10:22:54.124Z,94465.56
2022-09-18T10:24:01.036Z,94605.22
2022-09-18T10:25:23.905Z,94598.78
2022-09-18T10:26:29.877Z,94616.88
2022-09-18T10:27:26.687Z,94629.94
2022-09-18T10:28:25.792Z,94605.75
2022-09-18T10:29:22.682Z,94594.06
2022-09-18T10:30:19.431Z,94613.91
2022-09-18T10:31:18.123Z,94564.75
2022-09-18T10:32:36.638Z,94578.06
2022-09-18T10:33:36.436Z,94602.56
2022-09-18T10:34:40.386Z,94602.97
2022-09-18T10:35:37.039Z,94606.56
2022-09-18T10:36:39.177Z,94601.38
2022-09-18T10:37:35.821Z,94614.44
2022-09-18T10:38:34.938Z,94604.16
2022-09-18T10:39:34.730Z,94608.31
2022-09-18T10:40:37.273Z,94626.53
2022-09-18T10:41:39.305Z,94455.91
2022-09-18T10:42:44.870Z,94581.59
2022-09-18T10:44:03.677Z,94615.38
2022-09-18T10:45:22.422Z,94483.28
2022-09-18T10:46:36.064Z,94662.53
2022-09-18T10:47:36.566Z,94627.19
2022-09-18T10:48:33.492Z,94578.78
2022-09-18T10:49:37.806Z,94640.06
2022-09-18T10:50:34.793Z,94612.91
2022-09-18T10:51:31.580Z,94650.25
2022-09-18T10:52:38.399Z,94624.69
2022-09-18T10:53:42.513Z,94634.81
2022-09-18T10:54:39.271Z,94635.44
2022-09-18T10:55:52.607Z,94619.72
2022-09-18T10:56:52.569Z,94459.66
2022-09-18T10:57:58.246Z,94617.78
2022-09-18T10:58:54.979Z,94623.69
2022-09-18T10:59:51.670Z,94544.09
2022-09-18T11:00:56.512Z,94642.56
2022-09-18T11:01:58.048Z,94619.25
2022-09-18T11:03:03.653Z,94638.00
2022-09-18T11:04:06.706Z,94648.09
2022-09-18T11:05:03.993Z,94611.72
2022-09-18T11:06:17.008Z,94629.09
2022-09-18T11:07:14.213Z,94513.81
2022-09-18T11:08:18.747Z,94631.66
2022-09-18T11:09:23.826Z,94647.03
2022-09-18T11:10:24.639Z,94510.41
2022-09-18T11:11:37.281Z,94566.50
2022-09-18T11:12:35.149Z,94590.19
2022-09-18T11:13:35.128Z,94649.38
2022-09-18T11:14:41.043Z,94629.97
2022-09-18T11:15:38.816Z,94437.00
2022-09-18T11:16:45.507Z,94451.78
2022-09-18T11:17:50.425Z,94614.69
2022-09-18T11:18:47.594Z,94480.06
2022-09-18T11:19:51.209Z,94558.78
2022-09-18T11:20:48.355Z,94600.78
2022-09-18T11:21:51.353Z,94603.19
2022-09-18T11:22:48.254Z,94652.69
2022-09-18T11:23:45.024Z,94663.75
2022-09-18T11:24:46.638Z,94658.38
2022-09-18T11:25:48.110Z,94636.53
2022-09-18T11:26:50.952Z,94649.38
2022-09-18T11:27:59.759Z,94653.75
2022-09-18T11:29:06.575Z,94448.47
2022-09-18T11:30:21.983Z,94640.09
2022-09-18T11:31:21.556Z,94595.59
2022-09-18T11:32:26.483Z,94638.59
2022-09-18T11:33:49.141Z,94657.44
2022-09-18T11:34:53.786Z,94529.56
2022-09-18T11:36:00.817Z,94648.56
2022-09-18T11:37:02.635Z,94640.94
2022-09-18T11:38:07.877Z,94651.38
2022-09-18T11:39:15.426Z,94653.06
2022-09-18T11:40:21.673Z,94624.69
2022-09-18T11:41:30.959Z,94612.34
2022-09-18T11:42:28.057Z,94643.53
2022-09-18T11:43:32.515Z,94645.16
2022-09-18T11:44:33.223Z,94634.69
2022-09-18T11:46:08.081Z,94632.63
2022-09-18T11:47:30.764Z,94634.31
2022-09-18T11:48:36.410Z,94637.41
2022-09-18T11:49:48.822Z,94624.31
2022-09-18T11:50:46.679Z,94635.81
2022-09-18T11:51:59.630Z,94604.63
2022-09-18T11:53:04.297Z,94609.56
2022-09-18T11:54:11.898Z,94631.56
2022-09-18T11:55:31.708Z,94636.31
2022-09-18T11:56:39.207Z,94592.44
2022-09-18T11:57:45.961Z,94645.09
2022-09-18T11:59:03.806Z,94633.78
2022-09-18T12:00:18.873Z,94637.91
2022-09-18T12:01:27.292Z,94629.72
2022-09-18T12:02:43.876Z,94631.97
2022-09-18T12:04:07.688Z,94588.63
2022-09-18T12:05:23.918Z,94647.38
2022-09-18T12:06:31.183Z,94571.53
2022-09-18T12:07:38.489Z,94642.34
2022-09-18T12:09:00.383Z,94648.75
2022-09-18T12:10:15.528Z,94640.84